Bryan, TX (77801)

1:15 PM CST on February 23, 2017 (GMT -0600)
Woodland Hights | | Change Station

Elev 335 ft 30.65 °N, 96.36 °W | Updated 57 seconds ago

Clear
Clear
84.1 °F
Feels Like 84 °F
N
4.0
Wind Variable Wind from South
Gusts 9.0 mph

Today
High -- | Low -- °F
--% Chance of Precip.
Yesterday
High -- | Low -- °F
Precip. -- in
Pressure 29.67 in
Visibility 10.0 miles
Clouds Clear
Heat Index 84 °F
Dew Point 59 °F
Humidity 43%
Rainfall 0.00 in
Snow Depth Not available.
6:57 AM 6:19 PM
Waning Crescent, 9% visible
METAR KCLL 231853Z 17015G21KT 10SM CLR 28/14 A2968 RMK AO2 SLP047 T02780139
Pressure 29.67 in
Visibility 10.0 miles
Clouds Clear
Heat Index 84 °F
Dew Point 59 °F
Humidity 43%
Rainfall 0.00 in
Snow Depth Not available.
6:57 AM 6:19 PM
Waning Crescent, 9% visible
METAR KCLL 231853Z 17015G21KT 10SM CLR 28/14 A2968 RMK AO2 SLP047 T02780139

Get Your Daily Forecast Email!

Thanks for signing up!

Be on the lookout for a verification email in your inbox.

You'll start receiving the daily forecast at 8 AM.

×

10-Day Weather Forecast

Almanac

Astronomy

Feb. 23, 2017 Rise Set
Actual Time
Civil Twilight
Nautical Twilight
Astronomical Twilight
Moon
Length of Visible Light
Length of Day
Tomorrow will be .
, % of the Moon is Illuminated

Today's Extremes

State Highs State Lows

Community

WunderPhotos

Upload Photos

1,962,540 photos uploaded!

WunderBlog® & News

Nearby

Air Quality

  Air Quality AQ Index Pollutant
Not available.

Snow Depth

Station Depth Elevation

Earthquake Activity

City Distance Mag. Time & Date
Minimum magnitude displayed is 2.5.

Coastal Water Temperatures

Place Temperature

Stations

Nearby Weather Stations

Station Location Temp. Windchill Dew Point Humidity Wind Precip. Elev Updated Type
                   

Watches & Warnings

There are currently no watches in effect.